»·PEaware :: N973SE KSBP-L52

N973SE :: KSBP-L52

FLIGHT INFORMATION

Flight Status: Arrived
Operator: Privately registered:
United States
More flights under this callsign
Pilot: Stig E. (4778)
Aircraft: CESSNA 172 SKYHAWK
(C172)
More flights by this aircraft type
Origin: KSBP San Luis Co Regl
United States
Destination: L52 Oceano Co
United States
More flights between these airports :: More routes between these airports
Route:
File this flight plan on PilotEdge
Remarks:
Altitude:
(Current/Filed)
2,000ft
Speed:
(Current/Filed)
95kts
Departed: 26-Oct-17 08:45 AM
Arrived: 26-Oct-17 08:59 AM
Distance/Time
Traveled:
8nm/0:14
Distance/Time
To Go:
Arrived

Flight Plot

Page will automatically refresh every two minutes.


Map Options




Map Legend


Flown Route
Filed Route
Departure Airport
Arrival Airport
Navaid (VOR, NDB)
Fix

Horizontal Profiles

Position Reports

Time Latitude Longitude Heading Altitude Ground
Speed
26-Oct-17 07:54 35.237910 -120.638639 270 196ft 0kts
26-Oct-17 07:55 35.237910 -120.638639 270 196ft 0kts
26-Oct-17 07:56 35.237910 -120.638639 270 196ft 0kts
26-Oct-17 07:57 35.237910 -120.638639 270 196ft 0kts
26-Oct-17 07:58 35.237910 -120.638639 270 196ft 0kts
26-Oct-17 07:59 35.237910 -120.638639 270 196ft 0kts
26-Oct-17 08:00 35.237910 -120.638639 270 196ft 0kts
26-Oct-17 08:01 35.237910 -120.638639 270 196ft 0kts
26-Oct-17 08:02 35.237910 -120.638639 270 196ft 0kts
26-Oct-17 08:03 35.237910 -120.638639 270 196ft 0kts
26-Oct-17 08:04 35.237910 -120.638639 270 196ft 0kts
26-Oct-17 08:05 35.237910 -120.638639 270 196ft 0kts
26-Oct-17 08:06 35.237910 -120.638639 270 196ft 0kts
26-Oct-17 08:07 35.237910 -120.638639 270 196ft 0kts
26-Oct-17 08:08 35.237910 -120.638639 270 196ft 0kts
26-Oct-17 08:09 35.237910 -120.638639 270 196ft 0kts
26-Oct-17 08:10 35.237910 -120.638639 270 196ft 0kts
26-Oct-17 08:11 35.237910 -120.638639 270 196ft 0kts
26-Oct-17 08:12 35.237910 -120.638639 270 196ft 0kts
26-Oct-17 08:13 35.237910 -120.638639 270 196ft 0kts
26-Oct-17 08:14 35.237910 -120.638639 270 196ft 0kts
26-Oct-17 08:15 35.237910 -120.638639 270 196ft 0kts
26-Oct-17 08:16 35.237910 -120.638639 270 196ft 0kts
26-Oct-17 08:17 35.237910 -120.638639 270 196ft 0kts
26-Oct-17 08:18 35.237910 -120.638639 270 196ft 0kts
26-Oct-17 08:19 35.237910 -120.638639 270 196ft 0kts
26-Oct-17 08:20 35.237910 -120.638639 270 196ft 0kts
26-Oct-17 08:21 35.237910 -120.638639 270 196ft 0kts
26-Oct-17 08:22 35.237910 -120.638639 270 196ft 0kts
26-Oct-17 08:23 35.237910 -120.638639 270 196ft 0kts
26-Oct-17 08:24 35.237910 -120.638639 270 196ft 0kts
26-Oct-17 08:25 35.237910 -120.638639 270 196ft 0kts
26-Oct-17 08:26 35.237910 -120.638639 270 196ft 0kts
26-Oct-17 08:27 35.237910 -120.638639 270 196ft 0kts
26-Oct-17 08:28 35.237910 -120.638639 270 196ft 0kts
26-Oct-17 08:29 35.237910 -120.638639 270 196ft 0kts
26-Oct-17 08:30 35.237910 -120.638639 270 196ft 0kts
26-Oct-17 08:31 35.237910 -120.638639 270 196ft 0kts
26-Oct-17 08:32 35.237910 -120.638639 270 196ft 0kts
26-Oct-17 08:33 35.237910 -120.638639 270 196ft 0kts
26-Oct-17 08:34 35.237910 -120.638639 270 196ft 0kts
26-Oct-17 08:35 35.237910 -120.638639 270 196ft 0kts
26-Oct-17 08:36 35.237910 -120.638639 270 196ft 0kts
26-Oct-17 08:37 35.237910 -120.638639 270 196ft 0kts
26-Oct-17 08:38 35.237909 -120.638704 264 196ft 3kts
26-Oct-17 08:39 35.236084 -120.636894 126 203ft 10kts
26-Oct-17 08:40 35.234296 -120.633729 123 212ft 13kts
26-Oct-17 08:41 35.233148 -120.632169 248 213ft 0kts
26-Oct-17 08:42 35.233148 -120.632169 248 213ft 0kts
26-Oct-17 08:43 35.233148 -120.632169 248 213ft 0kts
26-Oct-17 08:44 35.233148 -120.632169 248 213ft 0kts
26-Oct-17 08:45 35.233148 -120.632169 248 213ft 0kts
26-Oct-17 08:46 35.233148 -120.632169 248 213ft 0kts
26-Oct-17 08:47 35.233148 -120.632169 248 213ft 0kts
26-Oct-17 08:48 35.233148 -120.632169 248 213ft 0kts
26-Oct-17 08:49 35.233148 -120.632169 248 213ft 0kts
26-Oct-17 08:50 35.234027 -120.635175 303 208ft 59kts
26-Oct-17 08:51 35.246867 -120.657881 304 879ft 85kts
26-Oct-17 08:52 35.238153 -120.673434 137 1480ft 88kts
26-Oct-17 08:53 35.222144 -120.648066 128 1817ft 93kts
26-Oct-17 08:54 35.206626 -120.621015 121 2003ft 105kts
26-Oct-17 08:55 35.190505 -120.592047 129 1998ft 104kts
26-Oct-17 08:56 35.168269 -120.574778 202 1927ft 106kts
26-Oct-17 08:57 35.143353 -120.592898 215 1535ft 104kts
26-Oct-17 08:58 35.122019 -120.608413 195 1486ft 81kts
26-Oct-17 08:59 35.100759 -120.622215 210 1321ft 86kts
26-Oct-17 09:00 35.083699 -120.640437 274 1190ft 90kts
26-Oct-17 09:01 35.095123 -120.633206 120 1006ft 84kts
26-Oct-17 09:02 35.082299 -120.611560 101 697ft 74kts
26-Oct-17 09:03 35.095679 -120.611308 303 155ft 69kts
26-Oct-17 09:04 35.102747 -120.623647 117 18ft 13kts
26-Oct-17 09:05 35.102391 -120.622840 218 18ft 0kts
26-Oct-17 09:06 35.102391 -120.622840 218 18ft 0kts
26-Oct-17 09:07 35.102391 -120.622840 218 18ft 0kts
26-Oct-17 09:08 35.102391 -120.622840 218 18ft 0kts
26-Oct-17 09:09 35.102391 -120.622840 218 18ft 0kts
26-Oct-17 09:10 35.102391 -120.622840 218 18ft 0kts
26-Oct-17 09:11 35.102391 -120.622840 218 18ft 0kts
26-Oct-17 09:12 35.102391 -120.622840 218 18ft 0kts
26-Oct-17 09:13 35.102391 -120.622840 218 18ft 0kts
26-Oct-17 09:14 35.102391 -120.622840 218 18ft 0kts
26-Oct-17 09:15 35.102391 -120.622840 218 18ft 0kts
26-Oct-17 09:16 35.102391 -120.622840 218 18ft 0kts
26-Oct-17 09:17 35.102391 -120.622840 218 18ft 0kts
26-Oct-17 09:18 35.102391 -120.622840 218 18ft 0kts

Navigation Log

Ident Type
Flight plan parsing failed, navigation log unavailable